Mustang, Texas
Current Conditions -  °F | °C
As of 4:35 PM on Friday 24 Oct 2014 (Local Time) from KLXY Reporting Station
Clear Clear  
Wind Chill: 80°   Ceiling: Unl
Heat Index: 81°   Visibility: 10mi
Dew Point: 60°   Wind: 5mph
Humidity: 51%   Direction: 200°SSW
Pressure: 30.09"   Gusts: NA
Location:  31.7447°N, 96.6798°W
Report Text: KLXY 242135Z AUTO 20004KT 10SM CLR 27/16 A3009 RMK AO2 T02660156
Loading
Personal Weather Stations






























Interactive Weather Map
Tropical Storm Tracking
New forecast layout! Learn more

10-Day Weather Forecast

Advertisements
Track Severe Weather on mobile